Capitol Logistics 262


KBOS
Logan International Airport
Boston, Massachusetts, US
KMCI
Kansas City International Airport
Kansas City, Missouri, US

Route Details

Aircraft Information
Primary: Boeing 767-300BDSF
Backup: Boeing 757-200SF
Route Data
Distance: 1090nm
Sched. Duration: 3h 45m
Avg. Duration: 3h 27m (-18m)
Times Flown: 4
Recm'd Route: HYLND5 HYLND CAM Q822 GONZZ Q29 DORET DJB J60 JOT J26 IRK BQS6
Planned Altitude: 36,000ft
Origin Wx: KBOS 271654Z 26023G40KT 10SM BKN029 BKN037 10/02 A2923 RMK AO2 PK WND 28040/1645 SLP897 T01000017
Dest. Wx: KMCI 271653Z 25010KT 10SM OVC070 04/M04 A3013 RMK AO2 SLP209 T00391044
Notes: METROAIR CARGO SUPPORT

Financial History
Total Freight: 380,754lbs
Average Load: 95,189lbs/flt
Fuel Used: 144,854lbs
Avg. Fuel Used: 36,214lbs/flt
Fuel Expense: $170,928
Avg. Fuel Expense: $42,732
Avg. Fuel Cost: $1.18/lbs
Total Gross Income: $503,506
Pilot Pay: $766
Total Expenses: $54,587
Total Revenue: $275,378
Average Revenue: $125,876.38